This is the latest recevied weather packets stored in our database for station/object WA0GMH-1. If no packets are shown the sender has not sent any weather packets the latest 10 day(s).
| Time | Temp. | Humidity | Pressure | Rain* | Wind** | Luminosity | Snow |
|---|---|---|---|---|---|---|---|
| 1777509603 | 12.78° C | 35% | 1016.2 hPa | 0 mm | - | - | - |
| 1777509202 | 12.78° C | 34% | 1016.3 hPa | 0 mm | - | - | - |
| 1777508799 | 13.33° C | 33% | 1016.4 hPa | 0 mm | - | - | - |
| 1777508397 | 13.33° C | 33% | 1016.5 hPa | 0 mm | - | - | - |
| 1777507994 | 13.33° C | 32% | 1016.2 hPa | 0 mm | - | - | - |
| 1777507593 | 13.89° C | 32% | 1016.2 hPa | 0 mm | - | - | - |
| 1777507190 | 14.44° C | 30% | 1016.2 hPa | 0 mm | - | - | - |
| 1777506788 | 15° C | 29% | 1016.4 hPa | 0 mm | - | - | - |
| 1777506386 | 15° C | 29% | 1016.2 hPa | 0 mm | - | - | - |
| 1777505984 | 15.56° C | 28% | 1016.2 hPa | 0 mm | - | - | - |
| 1777505581 | 16.11° C | 26% | 1016.4 hPa | 0 mm | - | - | - |
| 1777505179 | 17.22° C | 27% | 1016.3 hPa | 0 mm | - | - | - |
| 1777504777 | 17.22° C | 30% | 1016.1 hPa | 0 mm | - | - | - |
| 1777504375 | 17.22° C | 31% | 1016 hPa | 0 mm | - | - | - |
| 1777503972 | 17.78° C | 29% | 1016 hPa | 0 mm | - | - | - |
| 1777503570 | 18.33° C | 27% | 1016 hPa | 0 mm | - | - | - |
| 1777503168 | 18.33° C | 26% | 1016 hPa | 0 mm | - | - | - |
| 1777502766 | 17.78° C | 33% | 1016 hPa | 0 mm | - | - | - |
| 1777502363 | 17.22° C | 37% | 1015.9 hPa | 0 mm | - | - | - |
| 1777501961 | 17.22° C | 38% | 1015.8 hPa | 0 mm | - | - | - |
| 1777501559 | 16.67° C | 41% | 1015.8 hPa | 0 mm | - | - | - |
| 1777501157 | 16.11° C | 35% | 1016 hPa | 0 mm | - | - | - |
| 1777500754 | 16.67° C | 31% | 1016 hPa | 0 mm | - | - | - |
| 1777499945 | 17.22° C | 18% | 1016.4 hPa | 0 mm | - | - | - |
| 1777499543 | 17.78° C | 11% | 1016.6 hPa | 0 mm | - | - | - |
* Rain since midnight (hover to see other rain measurements)
** Current wind speed in m/s (hover to see current wind gust speed)